Time;durP1;ratioP1;P1;durP2;ratioP2;P2;SDS_P1;SDS_P2;PMS_P1;PMS_P2;Temp;Humidity;BMP_temperature;BMP_pressure;BME280_temperature;BME280_humidity;BME280_pressure;Samples;Min_cycle;Max_cycle;Signal;HPM_P1;HPM_P2
2024/02/03 00:00:31;;;;;;;26.90;22.50;;;;;;;;;;4997921;28;20677;-82
2024/02/03 00:02:59;;;;;;;27.87;22.20;;;;;;;;;;4974969;28;20220;-83
2024/02/03 00:05:27;;;;;;;27.43;22.60;;;;;;;;;;4980971;28;20232;-82
2024/02/03 00:07:52;;;;;;;26.37;23.47;;;;;;;;;;4980139;28;20217;-85
2024/02/03 00:10:18;;;;;;;26.03;23.27;;;;;;;;;;4991202;28;20239;-84
2024/02/03 00:12:47;;;;;;;27.40;24.10;;;;;;;;;;5003618;28;20291;-82
2024/02/03 00:15:15;;;;;;;29.13;24.07;;;;;;;;;;4990099;28;20239;-83
2024/02/03 00:17:41;;;;;;;28.73;23.57;;;;;;;;;;4989324;28;20256;-81
2024/02/03 00:20:08;;;;;;;27.80;24.53;;;;;;;;;;5004839;28;20217;-84
2024/02/03 00:22:33;;;;;;;26.20;23.43;;;;;;;;;;4980233;28;20224;-83
2024/02/03 00:25:02;;;;;;;26.30;23.60;;;;;;;;;;5000554;28;20220;-86
2024/02/03 00:27:30;;;;;;;27.00;24.07;;;;;;;;;;5003824;28;20348;-82
2024/02/03 00:29:55;;;;;;;27.10;23.70;;;;;;;;;;4979823;28;20216;-82
2024/02/03 00:32:21;;;;;;;26.93;24.00;;;;;;;;;;4975468;28;20229;-82
2024/02/03 00:34:49;;;;;;;27.00;24.23;;;;;;;;;;5020059;28;20221;-82
2024/02/03 00:37:16;;;;;;;29.07;23.90;;;;;;;;;;4977848;28;20240;-85
2024/02/03 00:39:42;;;;;;;32.07;25.27;;;;;;;;;;4998708;28;20220;-83
2024/02/03 00:42:08;;;;;;;29.83;24.63;;;;;;;;;;4986256;28;20276;-82
2024/02/03 00:44:34;;;;;;;29.07;24.83;;;;;;;;;;5011154;28;20247;-85
2024/02/03 00:47:02;;;;;;;30.50;27.20;;;;;;;;;;4981509;28;20217;-84
2024/02/03 00:49:27;;;;;;;29.43;26.17;;;;;;;;;;4990154;28;20225;-86
2024/02/03 00:51:54;;;;;;;30.60;26.30;;;;;;;;;;4999552;28;20232;-85
2024/02/03 00:54:20;;;;;;;32.23;27.23;;;;;;;;;;4981372;28;20792;-83
2024/02/03 00:56:45;;;;;;;34.07;25.53;;;;;;;;;;5003330;28;20221;-85
2024/02/03 00:59:11;;;;;;;32.17;27.97;;;;;;;;;;4971379;28;20210;-83
2024/02/03 01:01:39;;;;;;;34.10;27.67;;;;;;;;;;4990798;28;20228;-86
2024/02/03 01:04:09;;;;;;;33.57;27.93;;;;;;;;;;4984382;28;20228;-84
2024/02/03 01:06:35;;;;;;;33.97;28.63;;;;;;;;;;4986589;28;20221;-83
2024/02/03 01:09:02;;;;;;;33.90;28.80;;;;;;;;;;4989219;28;20711;-85
2024/02/03 01:11:31;;;;;;;35.90;28.40;;;;;;;;;;4989898;28;20223;-83
2024/02/03 01:13:57;;;;;;;35.90;28.60;;;;;;;;;;4987713;28;20216;-83
2024/02/03 01:16:26;;;;;;;32.63;28.53;;;;;;;;;;4992011;28;20220;-84
2024/02/03 01:18:54;;;;;;;36.03;28.57;;;;;;;;;;5004818;28;20216;-84
2024/02/03 01:21:24;;;;;;;34.17;27.93;;;;;;;;;;4975950;28;20274;-83
2024/02/03 01:23:54;;;;;;;36.17;28.70;;;;;;;;;;4987178;28;20224;-82
2024/02/03 01:26:24;;;;;;;36.60;28.20;;;;;;;;;;4980115;28;20709;-82
2024/02/03 01:28:50;;;;;;;33.57;26.73;;;;;;;;;;4997818;28;20269;-84
2024/02/03 01:31:18;;;;;;;36.73;28.53;;;;;;;;;;4972739;28;20235;-86
2024/02/03 01:33:46;;;;;;;32.90;27.20;;;;;;;;;;5025396;28;20242;-84
2024/02/03 01:36:16;;;;;;;34.30;28.33;;;;;;;;;;4979352;28;20236;-82
2024/02/03 01:38:48;;;;;;;35.03;28.13;;;;;;;;;;5000285;28;20224;-85
2024/02/03 01:41:14;;;;;;;34.37;27.00;;;;;;;;;;5004569;28;20226;-83
2024/02/03 01:43:40;;;;;;;30.73;26.27;;;;;;;;;;4980578;28;20239;-83
2024/02/03 01:46:08;;;;;;;29.60;25.50;;;;;;;;;;4975590;28;20216;-83
2024/02/03 01:48:36;;;;;;;31.20;24.83;;;;;;;;;;4991162;28;20225;-84
2024/02/03 01:51:04;;;;;;;31.50;23.60;;;;;;;;;;4984826;28;20287;-84
2024/02/03 01:53:30;;;;;;;28.57;24.03;;;;;;;;;;4985208;28;20284;-83
2024/02/03 01:55:56;;;;;;;31.73;24.50;;;;;;;;;;4984465;28;20250;-83
2024/02/03 01:58:24;;;;;;;27.17;23.93;;;;;;;;;;4987464;28;20216;-85
2024/02/03 02:00:49;;;;;;;27.63;24.30;;;;;;;;;;4997701;28;20228;-82
2024/02/03 02:03:15;;;;;;;29.07;23.57;;;;;;;;;;5006504;28;20220;-84
2024/02/03 02:05:43;;;;;;;27.77;22.53;;;;;;;;;;4997815;28;20224;-85
2024/02/03 02:08:11;;;;;;;27.73;22.53;;;;;;;;;;4988463;28;20228;-85
2024/02/03 02:10:37;;;;;;;27.33;22.50;;;;;;;;;;4985366;28;20243;-84
2024/02/03 02:13:03;;;;;;;28.70;22.50;;;;;;;;;;4977610;28;20213;-84
2024/02/03 02:15:29;;;;;;;25.93;21.50;;;;;;;;;;4996461;28;20287;-85
2024/02/03 02:17:59;;;;;;;27.20;21.17;;;;;;;;;;5006249;28;21365;-84
2024/02/03 02:20:24;;;;;;;23.93;20.53;;;;;;;;;;5002860;28;20248;-83
2024/02/03 02:22:50;;;;;;;24.70;20.67;;;;;;;;;;5005842;28;20291;-83
2024/02/03 02:25:18;;;;;;;23.70;19.63;;;;;;;;;;4991970;28;20242;-83
2024/02/03 02:27:46;;;;;;;26.50;21.50;;;;;;;;;;5003552;28;20863;-83
2024/02/03 02:30:14;;;;;;;23.57;19.07;;;;;;;;;;4997457;28;20215;-82
2024/02/03 02:32:40;;;;;;;23.13;18.40;;;;;;;;;;5000697;28;20216;-83
2024/02/03 02:35:10;;;;;;;21.80;18.27;;;;;;;;;;4964577;28;20608;-81
2024/02/03 02:37:36;;;;;;;21.27;17.97;;;;;;;;;;4985914;28;20231;-84
2024/02/03 02:40:02;;;;;;;21.60;17.33;;;;;;;;;;4985948;28;20238;-81
2024/02/03 02:42:27;;;;;;;22.03;18.07;;;;;;;;;;4982891;28;20220;-82
2024/02/03 02:44:53;;;;;;;20.70;16.73;;;;;;;;;;4981883;28;20228;-85
2024/02/03 02:47:21;;;;;;;21.63;15.80;;;;;;;;;;5002732;28;20216;-83
2024/02/03 02:49:49;;;;;;;19.87;17.03;;;;;;;;;;4980724;28;20251;-85
2024/02/03 02:52:17;;;;;;;20.63;16.10;;;;;;;;;;5002031;28;20212;-85
2024/02/03 02:54:43;;;;;;;18.73;16.47;;;;;;;;;;4989137;28;20225;-84
2024/02/03 02:57:09;;;;;;;21.90;17.47;;;;;;;;;;4992297;28;20216;-83
2024/02/03 02:59:35;;;;;;;21.30;17.00;;;;;;;;;;5023331;28;20224;-83
2024/02/03 03:02:02;;;;;;;20.07;16.97;;;;;;;;;;4998476;28;20208;-81
2024/02/03 03:04:31;;;;;;;22.47;16.53;;;;;;;;;;5007414;28;20232;-82
2024/02/03 03:06:57;;;;;;;17.73;15.57;;;;;;;;;;4999949;28;20299;-83
2024/02/03 03:09:22;;;;;;;19.27;15.97;;;;;;;;;;5003217;28;20231;-85
2024/02/03 03:11:48;;;;;;;19.20;16.10;;;;;;;;;;4994732;28;20262;-82
2024/02/03 03:14:21;;;;;;;20.27;14.93;;;;;;;;;;4995386;28;20291;-80
2024/02/03 03:16:49;;;;;;;17.20;15.30;;;;;;;;;;4998721;28;20252;-82
2024/02/03 03:19:14;;;;;;;19.03;15.93;;;;;;;;;;4998661;28;20300;-81
2024/02/03 03:21:42;;;;;;;19.73;15.57;;;;;;;;;;5011928;28;20218;-83
2024/02/03 03:24:07;;;;;;;18.03;15.07;;;;;;;;;;4994653;28;20275;-84
2024/02/03 03:26:47;;;;;;;19.97;16.37;;;;;;;;;;4997646;28;20220;-83
2024/02/03 03:29:13;;;;;;;18.63;15.23;;;;;;;;;;4993970;28;20220;-83
2024/02/03 03:31:41;;;;;;;19.73;15.47;;;;;;;;;;4988712;28;20224;-84
2024/02/03 03:34:06;;;;;;;18.17;15.07;;;;;;;;;;4960285;28;20226;-85
2024/02/03 03:36:32;;;;;;;18.10;14.57;;;;;;;;;;4984443;28;20231;-82
2024/02/03 03:39:00;;;;;;;16.83;14.40;;;;;;;;;;4965933;28;20673;-83
2024/02/03 03:41:25;;;;;;;18.20;15.83;;;;;;;;;;4993882;28;20239;-84
2024/02/03 03:43:51;;;;;;;20.73;16.50;;;;;;;;;;5013212;28;20331;-84
2024/02/03 03:46:21;;;;;;;18.33;16.23;;;;;;;;;;4984808;28;20280;-84
2024/02/03 03:48:49;;;;;;;19.93;16.40;;;;;;;;;;4997694;28;20243;-82
2024/02/03 03:51:14;;;;;;;21.60;17.63;;;;;;;;;;4988763;28;20311;-83
2024/02/03 03:53:40;;;;;;;23.53;19.37;;;;;;;;;;5008888;28;20283;-82
2024/02/03 03:56:06;;;;;;;21.67;18.33;;;;;;;;;;5010910;28;20228;-82
2024/02/03 04:02:21;;;;;;;26.43;20.53;;;;;;;;;;5029937;28;20236;-82
2024/02/03 04:04:46;;;;;;;26.00;20.00;;;;;;;;;;4995426;28;20231;-81
2024/02/03 04:07:15;;;;;;;27.80;22.40;;;;;;;;;;4999911;28;20265;-81
2024/02/03 04:09:48;;;;;;;29.50;23.83;;;;;;;;;;5016355;28;20228;-82
2024/02/03 04:12:16;;;;;;;30.60;23.33;;;;;;;;;;5020580;28;20217;-83
2024/02/03 04:14:46;;;;;;;31.60;24.93;;;;;;;;;;4990749;28;20224;-81
2024/02/03 04:17:15;;;;;;;30.27;24.30;;;;;;;;;;5009953;28;20284;-83
2024/02/03 04:19:43;;;;;;;28.03;23.53;;;;;;;;;;5010283;28;20205;-81
2024/02/03 04:22:11;;;;;;;28.10;22.97;;;;;;;;;;5016158;28;20220;-81
2024/02/03 04:24:38;;;;;;;30.43;24.60;;;;;;;;;;5006250;28;20228;-80
2024/02/03 04:27:04;;;;;;;31.40;24.93;;;;;;;;;;4997653;28;20308;-81
2024/02/03 04:29:30;;;;;;;31.53;25.70;;;;;;;;;;5006164;28;20229;-82
2024/02/03 04:31:55;;;;;;;28.60;22.93;;;;;;;;;;5017278;28;20667;-82
2024/02/03 04:34:23;;;;;;;29.97;24.37;;;;;;;;;;4994040;28;20659;-81
2024/02/03 04:36:49;;;;;;;28.00;24.20;;;;;;;;;;4989612;28;20247;-82
2024/02/03 04:39:14;;;;;;;32.70;24.90;;;;;;;;;;5011672;28;20238;-83
2024/02/03 04:41:40;;;;;;;30.60;24.13;;;;;;;;;;5003882;28;20225;-78
2024/02/03 04:44:05;;;;;;;26.90;23.63;;;;;;;;;;5013949;28;20240;-79
2024/02/03 04:46:31;;;;;;;30.40;24.87;;;;;;;;;;4983774;28;20284;-78
2024/02/03 04:48:57;;;;;;;28.83;23.37;;;;;;;;;;5001104;28;20216;-81
2024/02/03 04:51:22;;;;;;;32.73;22.97;;;;;;;;;;4994939;28;20221;-81
2024/02/03 04:53:48;;;;;;;29.40;24.63;;;;;;;;;;4979727;28;20242;-79
2024/02/03 04:56:13;;;;;;;27.73;24.03;;;;;;;;;;5005101;28;20307;-78
2024/02/03 04:58:41;;;;;;;27.70;23.47;;;;;;;;;;4973121;28;20224;-79
2024/02/03 05:01:07;;;;;;;27.40;23.53;;;;;;;;;;4998382;28;20279;-80
2024/02/03 05:03:32;;;;;;;28.00;22.63;;;;;;;;;;4991566;28;20314;-80
2024/02/03 05:06:04;;;;;;;26.37;22.50;;;;;;;;;;5006979;28;20220;-78
2024/02/03 05:08:34;;;;;;;25.83;23.07;;;;;;;;;;5006899;28;20262;-82
2024/02/03 05:11:00;;;;;;;28.73;23.63;;;;;;;;;;5007410;28;20236;-79
2024/02/03 05:13:27;;;;;;;28.10;24.17;;;;;;;;;;4966916;28;20220;-79
2024/02/03 05:15:53;;;;;;;28.63;24.07;;;;;;;;;;5003107;28;20236;-78
2024/02/03 05:18:19;;;;;;;29.00;25.33;;;;;;;;;;4996147;28;20235;-80
2024/02/03 05:20:47;;;;;;;30.87;25.23;;;;;;;;;;4982813;28;21013;-78
2024/02/03 05:23:13;;;;;;;30.23;25.23;;;;;;;;;;5007720;28;20246;-80
2024/02/03 05:25:38;;;;;;;32.03;26.97;;;;;;;;;;4990374;28;20233;-79
2024/02/03 05:28:06;;;;;;;30.47;25.93;;;;;;;;;;5005589;28;20237;-80
2024/02/03 05:30:39;;;;;;;29.13;24.27;;;;;;;;;;4985908;28;20231;-80
2024/02/03 05:33:05;;;;;;;32.17;25.80;;;;;;;;;;5019325;28;20252;-79
2024/02/03 05:35:30;;;;;;;31.97;26.57;;;;;;;;;;4994692;28;20236;-80
2024/02/03 05:37:56;;;;;;;33.80;26.37;;;;;;;;;;4994833;28;20212;-81
2024/02/03 05:40:24;;;;;;;32.63;26.43;;;;;;;;;;5002140;28;20216;-79
2024/02/03 05:42:51;;;;;;;31.50;26.90;;;;;;;;;;4984299;28;20235;-82
2024/02/03 05:45:17;;;;;;;34.10;27.23;;;;;;;;;;4979272;28;20725;-80
2024/02/03 05:47:45;;;;;;;33.57;27.67;;;;;;;;;;5007441;28;20256;-82
2024/02/03 05:50:12;;;;;;;36.33;29.07;;;;;;;;;;5006074;28;20263;-81
2024/02/03 05:52:38;;;;;;;31.47;26.90;;;;;;;;;;5006726;28;20220;-80
2024/02/03 05:55:07;;;;;;;35.97;27.90;;;;;;;;;;4990713;28;20651;-80
2024/02/03 05:57:32;;;;;;;32.23;28.63;;;;;;;;;;4982094;28;20221;-80
2024/02/03 05:59:58;;;;;;;32.60;27.73;;;;;;;;;;4992068;28;20252;-80
2024/02/03 06:02:23;;;;;;;33.60;28.07;;;;;;;;;;4995281;28;20216;-80
2024/02/03 06:04:49;;;;;;;32.70;28.00;;;;;;;;;;4990508;28;20236;-81
2024/02/03 06:07:19;;;;;;;35.73;27.70;;;;;;;;;;4995925;28;20227;-80
2024/02/03 06:09:47;;;;;;;31.20;24.43;;;;;;;;;;5011307;28;20308;-82
2024/02/03 06:12:15;;;;;;;31.27;27.10;;;;;;;;;;4990274;28;20240;-80
2024/02/03 06:14:42;;;;;;;29.50;23.77;;;;;;;;;;4980406;28;20242;-80
2024/02/03 06:17:10;;;;;;;32.60;27.37;;;;;;;;;;4994139;28;20676;-79
2024/02/03 06:19:37;;;;;;;32.27;27.33;;;;;;;;;;4989399;28;20213;-78
2024/02/03 06:22:03;;;;;;;32.53;25.63;;;;;;;;;;5021701;28;20232;-80
2024/02/03 06:24:29;;;;;;;31.80;26.83;;;;;;;;;;4974772;28;20236;-80
2024/02/03 06:26:54;;;;;;;32.37;25.63;;;;;;;;;;5005083;28;20231;-81
2024/02/03 06:29:20;;;;;;;27.80;24.80;;;;;;;;;;5012009;28;20228;-80
2024/02/03 06:31:45;;;;;;;31.00;24.53;;;;;;;;;;4979433;28;20228;-80
2024/02/03 06:34:10;;;;;;;28.83;24.10;;;;;;;;;;4970540;28;20279;-81
2024/02/03 06:36:36;;;;;;;28.33;23.93;;;;;;;;;;4975069;28;20217;-79
2024/02/03 06:39:01;;;;;;;27.60;23.70;;;;;;;;;;4995436;28;20697;-79
2024/02/03 06:41:29;;;;;;;26.00;22.83;;;;;;;;;;4997601;28;20231;-78
2024/02/03 06:43:55;;;;;;;26.20;23.00;;;;;;;;;;4995555;28;20331;-81
2024/02/03 06:46:23;;;;;;;27.93;22.40;;;;;;;;;;4977753;28;20839;-84
2024/02/03 06:48:48;;;;;;;24.23;20.93;;;;;;;;;;4989051;28;20216;-80
2024/02/03 06:51:14;;;;;;;22.97;20.67;;;;;;;;;;4977330;28;20235;-82
2024/02/03 06:53:39;;;;;;;26.60;21.50;;;;;;;;;;5002908;28;20235;-78
2024/02/03 06:56:05;;;;;;;23.97;21.00;;;;;;;;;;5006949;28;20222;-78
2024/02/03 06:58:33;;;;;;;22.73;19.97;;;;;;;;;;4967895;28;20304;-82
2024/02/03 07:00:58;;;;;;;24.53;19.60;;;;;;;;;;5016798;28;20311;-80
2024/02/03 07:03:24;;;;;;;24.57;19.00;;;;;;;;;;4991479;28;20697;-81
2024/02/03 07:05:49;;;;;;;22.10;18.70;;;;;;;;;;4993861;28;20232;-79
2024/02/03 07:08:15;;;;;;;21.17;17.80;;;;;;;;;;4994497;28;20231;-82
2024/02/03 07:10:43;;;;;;;20.27;18.07;;;;;;;;;;4974622;28;20220;-83
2024/02/03 07:13:08;;;;;;;19.60;17.50;;;;;;;;;;4990153;28;20215;-81
2024/02/03 07:15:34;;;;;;;25.13;17.47;;;;;;;;;;5019413;28;20296;-79
2024/02/03 07:17:59;;;;;;;18.53;16.57;;;;;;;;;;4985112;28;20231;-82
2024/02/03 07:20:28;;;;;;;19.67;16.07;;;;;;;;;;4996450;28;20224;-81
2024/02/03 07:23:00;;;;;;;20.43;15.07;;;;;;;;;;4995528;28;20279;-80
2024/02/03 07:25:27;;;;;;;20.20;16.07;;;;;;;;;;4984975;28;20327;-81
2024/02/03 07:27:53;;;;;;;19.30;15.60;;;;;;;;;;4978169;28;20229;-80
2024/02/03 07:30:18;;;;;;;18.40;15.47;;;;;;;;;;4992189;28;20232;-82
2024/02/03 07:32:44;;;;;;;15.83;14.17;;;;;;;;;;4985480;28;20229;-79
2024/02/03 07:35:10;;;;;;;16.20;14.00;;;;;;;;;;4992626;28;20625;-81
2024/02/03 07:37:36;;;;;;;16.77;13.93;;;;;;;;;;4993747;28;20246;-78
2024/02/03 07:40:01;;;;;;;16.20;13.93;;;;;;;;;;4978210;28;20577;-83
2024/02/03 07:42:27;;;;;;;17.17;14.07;;;;;;;;;;4990329;28;20231;-80
2024/02/03 07:44:52;;;;;;;16.40;12.93;;;;;;;;;;4991918;28;20233;-79
2024/02/03 07:47:20;;;;;;;17.63;13.07;;;;;;;;;;5013819;28;20220;-83
2024/02/03 07:49:50;;;;;;;16.07;13.87;;;;;;;;;;4975931;28;20619;-79
2024/02/03 07:52:15;;;;;;;14.57;12.93;;;;;;;;;;4973376;28;20220;-80
2024/02/03 07:54:41;;;;;;;13.87;12.47;;;;;;;;;;5003647;28;20223;-79
2024/02/03 07:57:06;;;;;;;16.03;13.03;;;;;;;;;;4979972;28;20231;-85
2024/02/03 07:59:32;;;;;;;15.33;13.23;;;;;;;;;;5006640;28;20228;-79
2024/02/03 08:01:57;;;;;;;13.70;12.20;;;;;;;;;;4990482;28;20679;-82
2024/02/03 08:04:23;;;;;;;14.40;12.90;;;;;;;;;;4985385;28;20245;-84
2024/02/03 08:06:48;;;;;;;15.33;13.37;;;;;;;;;;4989101;28;20234;-80
2024/02/03 08:09:16;;;;;;;16.93;12.47;;;;;;;;;;5016038;28;20224;-81
2024/02/03 08:11:42;;;;;;;14.83;13.33;;;;;;;;;;4975938;28;20270;-79
2024/02/03 08:14:07;;;;;;;13.93;12.40;;;;;;;;;;4988036;28;20827;-79
2024/02/03 08:16:35;;;;;;;14.00;12.40;;;;;;;;;;4989360;28;20216;-83
2024/02/03 08:19:02;;;;;;;16.37;12.90;;;;;;;;;;4979747;28;20215;-78
2024/02/03 08:21:28;;;;;;;14.30;12.90;;;;;;;;;;4992633;28;20660;-80
2024/02/03 08:23:53;;;;;;;15.57;12.80;;;;;;;;;;4984048;28;20242;-78
2024/02/03 08:26:24;;;;;;;14.13;12.73;;;;;;;;;;5010264;28;20220;-79
2024/02/03 08:28:51;;;;;;;16.17;11.93;;;;;;;;;;4986646;28;20221;-80
2024/02/03 08:31:18;;;;;;;17.40;12.47;;;;;;;;;;4985006;28;20220;-77
2024/02/03 08:33:43;;;;;;;14.17;11.97;;;;;;;;;;4990025;28;20224;-79
2024/02/03 08:36:09;;;;;;;13.27;12.00;;;;;;;;;;4975514;28;20228;-80
2024/02/03 08:38:35;;;;;;;15.63;12.80;;;;;;;;;;5007413;28;20254;-79
2024/02/03 08:41:03;;;;;;;14.53;12.23;;;;;;;;;;5018962;28;20228;-79
2024/02/03 08:43:29;;;;;;;15.67;12.23;;;;;;;;;;5005560;28;20232;-78
2024/02/03 08:45:55;;;;;;;14.83;12.10;;;;;;;;;;4983792;28;20255;-78
2024/02/03 08:48:25;;;;;;;13.00;11.37;;;;;;;;;;4996013;28;20223;-78
2024/02/03 08:50:50;;;;;;;14.33;12.77;;;;;;;;;;4996329;28;20274;-78
2024/02/03 08:53:16;;;;;;;16.47;12.60;;;;;;;;;;5000976;28;20221;-77
2024/02/03 08:55:41;;;;;;;16.27;12.47;;;;;;;;;;4984705;28;20221;-79
2024/02/03 08:58:07;;;;;;;14.43;12.87;;;;;;;;;;5001929;28;20220;-78
2024/02/03 09:00:32;;;;;;;15.37;12.87;;;;;;;;;;5001283;28;20223;-77
2024/02/03 09:02:58;;;;;;;15.23;13.13;;;;;;;;;;5000489;28;20235;-81
2024/02/03 09:05:23;;;;;;;17.90;13.33;;;;;;;;;;4992893;28;20250;-77
2024/02/03 09:07:51;;;;;;;13.87;12.13;;;;;;;;;;5024871;28;20251;-79
2024/02/03 09:10:17;;;;;;;14.47;12.60;;;;;;;;;;5002256;28;20222;-78
2024/02/03 09:12:45;;;;;;;14.17;11.90;;;;;;;;;;5010783;28;20220;-81
2024/02/03 09:15:10;;;;;;;14.73;12.20;;;;;;;;;;4997162;28;20225;-78
2024/02/03 09:17:38;;;;;;;16.33;12.33;;;;;;;;;;5023948;28;20225;-77
2024/02/03 09:20:04;;;;;;;17.63;12.70;;;;;;;;;;4997907;28;20232;-78
2024/02/03 09:22:32;;;;;;;15.13;12.97;;;;;;;;;;4998178;28;20224;-77
2024/02/03 09:24:57;;;;;;;15.17;12.73;;;;;;;;;;5024055;28;20236;-80
2024/02/03 09:27:24;;;;;;;15.50;13.47;;;;;;;;;;5006622;28;20229;-77
2024/02/03 09:29:49;;;;;;;14.90;13.37;;;;;;;;;;5005906;28;20219;-78
2024/02/03 09:32:17;;;;;;;17.27;13.90;;;;;;;;;;4983614;28;20225;-78
2024/02/03 09:34:47;;;;;;;17.23;14.00;;;;;;;;;;5006390;28;20230;-76
2024/02/03 09:37:15;;;;;;;15.90;13.83;;;;;;;;;;4972053;28;20225;-80
2024/02/03 09:39:44;;;;;;;18.47;14.17;;;;;;;;;;5005432;28;20251;-76
2024/02/03 09:42:09;;;;;;;18.13;13.93;;;;;;;;;;5000259;28;20681;-82
2024/02/03 09:44:37;;;;;;;17.97;14.90;;;;;;;;;;4990364;28;20223;-77
2024/02/03 09:47:03;;;;;;;18.97;15.27;;;;;;;;;;4994301;28;20243;-77
2024/02/03 09:49:31;;;;;;;16.83;15.07;;;;;;;;;;5002011;28;20225;-77
2024/02/03 09:52:00;;;;;;;19.47;16.67;;;;;;;;;;4991945;28;20347;-78
2024/02/03 09:54:26;;;;;;;36.03;32.07;;;;;;;;;;4999314;28;20212;-76
2024/02/03 09:56:54;;;;;;;19.60;17.47;;;;;;;;;;5014156;28;20239;-78
2024/02/03 09:59:20;;;;;;;25.40;22.37;;;;;;;;;;5016285;28;20224;-78
2024/02/03 10:01:46;;;;;;;21.57;19.23;;;;;;;;;;4979889;28;20223;-78
2024/02/03 10:04:14;;;;;;;30.00;26.90;;;;;;;;;;4983547;28;20240;-77
2024/02/03 10:06:46;;;;;;;24.10;21.70;;;;;;;;;;4998172;28;20224;-79
2024/02/03 10:09:24;;;;;;;21.73;19.37;;;;;;;;;;4981912;28;20236;-79
2024/02/03 10:11:50;;;;;;;18.80;15.33;;;;;;;;;;4991136;28;20235;-77
2024/02/03 10:14:16;;;;;;;20.13;16.10;;;;;;;;;;4972307;28;20228;-77
2024/02/03 10:16:49;;;;;;;18.33;16.33;;;;;;;;;;4987750;28;20700;-78
2024/02/03 10:19:15;;;;;;;19.67;16.53;;;;;;;;;;4996144;28;20228;-78
2024/02/03 10:21:43;;;;;;;20.47;15.70;;;;;;;;;;4996607;28;20219;-77
2024/02/03 10:24:08;;;;;;;19.37;16.07;;;;;;;;;;5021610;28;20702;-77
2024/02/03 10:26:37;;;;;;;19.13;16.13;;;;;;;;;;4980435;28;20250;-77
2024/02/03 10:29:14;;;;;;;20.00;15.90;;;;;;;;;;5014336;28;20220;-77
2024/02/03 10:31:48;;;;;;;21.13;15.97;;;;;;;;;;4984658;28;20224;-77
2024/02/03 10:34:16;;;;;;;19.23;16.17;;;;;;;;;;5007965;28;20231;-77
2024/02/03 10:36:42;;;;;;;17.33;15.47;;;;;;;;;;4995424;28;20226;-78
2024/02/03 10:39:07;;;;;;;20.03;15.10;;;;;;;;;;5011535;28;20223;-79
2024/02/03 10:41:38;;;;;;;19.00;14.93;;;;;;;;;;4989889;28;20774;-80
2024/02/03 10:44:07;;;;;;;18.43;14.50;;;;;;;;;;4996208;28;20304;-77
2024/02/03 10:46:35;;;;;;;19.03;14.80;;;;;;;;;;4996227;28;20918;-79
2024/02/03 10:49:00;;;;;;;16.53;14.83;;;;;;;;;;4992944;28;20575;-79
2024/02/03 10:51:30;;;;;;;17.30;15.40;;;;;;;;;;4983899;28;20227;-78
2024/02/03 10:54:01;;;;;;;17.97;14.07;;;;;;;;;;4993998;28;20238;-81
2024/02/03 10:56:28;;;;;;;19.20;16.13;;;;;;;;;;4983472;28;20307;-80
2024/02/03 10:58:56;;;;;;;19.00;14.90;;;;;;;;;;5018364;28;20932;-79
2024/02/03 11:01:21;;;;;;;17.00;14.70;;;;;;;;;;4999226;28;20217;-79
2024/02/03 11:03:48;;;;;;;19.80;17.70;;;;;;;;;;5004399;28;20264;-78
2024/02/03 11:06:26;;;;;;;15.47;13.50;;;;;;;;;;4983108;28;20220;-79
2024/02/03 11:09:09;;;;;;;16.67;15.07;;;;;;;;;;4993742;28;20216;-79
2024/02/03 11:11:39;;;;;;;15.77;14.07;;;;;;;;;;5000438;28;20227;-79
2024/02/03 11:14:14;;;;;;;16.63;14.40;;;;;;;;;;4984987;28;20224;-79
2024/02/03 11:16:40;;;;;;;15.93;13.17;;;;;;;;;;4997664;28;20229;-80
2024/02/03 11:19:13;;;;;;;15.23;12.80;;;;;;;;;;5009778;28;20743;-79
2024/02/03 11:21:43;;;;;;;14.30;12.10;;;;;;;;;;5001181;28;21260;-78
2024/02/03 11:24:11;;;;;;;17.73;13.63;;;;;;;;;;4997250;28;20315;-77
2024/02/03 11:26:39;;;;;;;17.80;12.00;;;;;;;;;;5006443;28;20212;-81
2024/02/03 11:29:08;;;;;;;15.60;12.87;;;;;;;;;;5000123;28;20223;-78
2024/02/03 11:31:34;;;;;;;14.60;12.60;;;;;;;;;;4976676;28;20279;-79
2024/02/03 11:33:59;;;;;;;16.83;12.40;;;;;;;;;;4994063;28;20282;-77
2024/02/03 11:36:25;;;;;;;17.30;12.13;;;;;;;;;;4990157;28;20216;-79
2024/02/03 11:38:53;;;;;;;13.17;11.67;;;;;;;;;;4986025;28;20220;-78
2024/02/03 11:41:19;;;;;;;13.67;11.73;;;;;;;;;;4997329;28;20247;-79
2024/02/03 11:43:46;;;;;;;12.77;11.47;;;;;;;;;;4987240;28;20216;-77
2024/02/03 11:46:12;;;;;;;16.03;12.10;;;;;;;;;;4979483;28;20368;-77
2024/02/03 11:48:39;;;;;;;14.73;12.60;;;;;;;;;;5004910;28;20239;-77
2024/02/03 11:51:08;;;;;;;16.33;11.30;;;;;;;;;;4982885;28;20247;-76
2024/02/03 11:53:34;;;;;;;17.17;12.70;;;;;;;;;;4983842;28;20221;-76
2024/02/03 11:56:00;;;;;;;15.67;12.00;;;;;;;;;;5004637;28;20251;-77
2024/02/03 11:58:25;;;;;;;15.80;11.90;;;;;;;;;;4992664;28;20243;-79
2024/02/03 12:01:02;;;;;;;11.50;10.30;;;;;;;;;;5001516;28;20713;-79
2024/02/03 12:03:28;;;;;;;13.23;11.13;;;;;;;;;;4987342;28;20225;-79
2024/02/03 12:05:54;;;;;;;13.80;11.10;;;;;;;;;;5000349;28;20232;-80
2024/02/03 12:08:22;;;;;;;14.87;12.00;;;;;;;;;;5001771;28;20219;-78
2024/02/03 12:10:47;;;;;;;18.63;11.93;;;;;;;;;;4979637;28;20216;-79
2024/02/03 12:13:13;;;;;;;14.47;12.40;;;;;;;;;;5001957;28;20216;-82
2024/02/03 12:15:38;;;;;;;14.53;11.93;;;;;;;;;;4984863;28;20234;-78
2024/02/03 12:18:04;;;;;;;13.13;11.37;;;;;;;;;;4992896;28;20228;-79
2024/02/03 12:20:32;;;;;;;16.10;10.97;;;;;;;;;;4969586;28;20225;-79
2024/02/03 12:22:59;;;;;;;13.87;11.33;;;;;;;;;;4995714;28;20259;-81
2024/02/03 12:25:27;;;;;;;12.47;11.10;;;;;;;;;;4975453;28;20231;-78
2024/02/03 12:27:53;;;;;;;11.43;10.10;;;;;;;;;;4993203;28;20236;-81
2024/02/03 12:30:21;;;;;;;13.60;10.93;;;;;;;;;;5006771;28;20255;-80
2024/02/03 12:32:47;;;;;;;13.03;11.67;;;;;;;;;;5012121;28;20220;-79
2024/02/03 12:35:13;;;;;;;10.93;9.73;;;;;;;;;;4987316;28;20749;-80
2024/02/03 12:37:41;;;;;;;12.37;9.87;;;;;;;;;;4992323;28;20579;-81
2024/02/03 12:40:10;;;;;;;14.63;11.70;;;;;;;;;;4985255;28;20289;-80
2024/02/03 12:42:37;;;;;;;15.57;11.37;;;;;;;;;;4993068;28;20217;-79
2024/02/03 12:45:04;;;;;;;13.80;10.60;;;;;;;;;;4995490;28;20315;-78
2024/02/03 12:47:30;;;;;;;13.40;10.97;;;;;;;;;;4988485;28;20228;-80
2024/02/03 12:49:58;;;;;;;13.87;12.07;;;;;;;;;;4958888;28;20246;-79
2024/02/03 12:52:23;;;;;;;13.80;10.60;;;;;;;;;;4981646;28;20240;-76
2024/02/03 12:54:49;;;;;;;12.27;11.00;;;;;;;;;;4985470;28;20294;-80
2024/02/03 12:57:14;;;;;;;14.23;10.53;;;;;;;;;;4999244;28;20434;-79
2024/02/03 12:59:40;;;;;;;15.40;11.77;;;;;;;;;;4999487;28;20242;-77
2024/02/03 13:02:05;;;;;;;14.27;10.17;;;;;;;;;;4991683;28;20224;-77
2024/02/03 13:04:31;;;;;;;16.20;10.27;;;;;;;;;;5000776;28;20241;-83
2024/02/03 13:06:59;;;;;;;15.03;10.80;;;;;;;;;;5011980;28;20224;-78
2024/02/03 13:09:24;;;;;;;14.87;10.50;;;;;;;;;;4984217;28;20593;-78
2024/02/03 13:11:50;;;;;;;11.53;9.90;;;;;;;;;;4989992;28;20236;-78
2024/02/03 13:14:16;;;;;;;14.60;12.00;;;;;;;;;;5015659;28;20220;-80
2024/02/03 13:16:41;;;;;;;15.43;10.77;;;;;;;;;;4998365;28;20217;-79
2024/02/03 13:19:09;;;;;;;13.97;11.07;;;;;;;;;;5002011;28;20240;-79
2024/02/03 13:21:34;;;;;;;14.77;11.50;;;;;;;;;;4996183;28;20226;-78
2024/02/03 13:24:00;;;;;;;14.73;10.97;;;;;;;;;;5003685;28;20278;-79
2024/02/03 13:26:26;;;;;;;13.00;10.43;;;;;;;;;;5002630;28;20235;-77
2024/02/03 13:28:51;;;;;;;11.17;9.93;;;;;;;;;;5008344;28;20217;-79
2024/02/03 13:31:17;;;;;;;17.80;10.80;;;;;;;;;;4991645;28;20236;-77
2024/02/03 13:33:42;;;;;;;14.27;9.27;;;;;;;;;;4983775;28;20225;-78
2024/02/03 13:36:08;;;;;;;15.07;10.33;;;;;;;;;;5004217;28;20868;-81
2024/02/03 13:38:34;;;;;;;20.83;18.63;;;;;;;;;;5002345;28;20228;-78
2024/02/03 13:41:00;;;;;;;13.67;10.30;;;;;;;;;;5009531;28;20254;-79
2024/02/03 13:43:26;;;;;;;14.40;10.63;;;;;;;;;;5011426;28;20662;-79
2024/02/03 13:45:51;;;;;;;29.87;23.87;;;;;;;;;;5001923;28;20232;-78
2024/02/03 13:48:17;;;;;;;21.97;17.10;;;;;;;;;;5012580;28;20216;-80
2024/02/03 13:50:43;;;;;;;11.53;8.67;;;;;;;;;;4986809;28;20713;-81
2024/02/03 13:53:09;;;;;;;11.70;8.67;;;;;;;;;;4999492;28;20223;-79
2024/02/03 13:55:37;;;;;;;12.83;8.90;;;;;;;;;;5003282;28;20228;-79
2024/02/03 13:58:05;;;;;;;11.07;8.57;;;;;;;;;;4974989;28;20215;-79
2024/02/03 14:00:31;;;;;;;10.83;8.47;;;;;;;;;;4996445;28;20402;-78
2024/02/03 14:02:56;;;;;;;12.30;9.00;;;;;;;;;;4998241;28;20229;-78
2024/02/03 14:05:25;;;;;;;10.83;8.40;;;;;;;;;;5002157;28;20233;-79
2024/02/03 14:07:50;;;;;;;14.27;8.70;;;;;;;;;;4999842;28;20235;-78
2024/02/03 14:10:16;;;;;;;9.60;8.13;;;;;;;;;;4974422;28;20259;-83
2024/02/03 14:12:42;;;;;;;10.53;7.40;;;;;;;;;;4997695;28;20220;-78
2024/02/03 14:15:07;;;;;;;9.27;7.03;;;;;;;;;;4979551;28;20681;-80
2024/02/03 14:17:33;;;;;;;10.23;7.60;;;;;;;;;;5000666;28;20228;-77
2024/02/03 14:19:58;;;;;;;13.50;9.43;;;;;;;;;;5015054;28;20337;-77